METAR Data

Data at: 1245 UTC 24 May 2022

METAR for:CYSJ (Saint John Arpt, NB, CA)
Text:CYSJ 241200Z 01010KT 15SM SCT270 11/03 A3036 RMK CI3 SLP284
Temperature: 11.0°C ( 52°F)
Dewpoint: 3.0°C ( 37°F) [RH = 58%]
Pressure (altimeter):30.36 inches Hg (1028.2 mb) [Sea level pressure: 1028.4 mb]
Winds:from the N (10 degrees) at 12 MPH (10 knots; 5.1 m/s)
Visibility: 15 sm ( 24 km)
Ceiling:at least 12,000 feet AGL
Clouds: scattered clouds at 27000 feet AGL